EPSC/SZZ METAR and TAF weather

Enter ICAO airport designator
Station Type Date Time Source
EPSC METAR 2018/12/10 17:30 UTC NOAA

EPSC 101730Z 24009KT 210V270 9999 -SHRA FEW011 SCT015CB BKN021 04/02 Q1005


Station Type Date Time Source
EPSC Decoded METAR 2018/12/10 17:30 UTC NOAA

Szczecin, Poland (EPSC) 53-24N 014-37E 3M
Dec 10, 2018 - 12:30 PM EST / 2018.12.10 1730 UTC
Wind: from the WSW (240 degrees) at 10 MPH (9 KT) (direction variable):0
Visibility: greater than 7 mile(s):0
Sky conditions: mostly cloudy
Weather: light rain showers; Cumulonimbus clouds observed
Temperature: 39 F (4 C)
Dew Point: 35 F (2 C)
Relative Humidity: 86%
Pressure (altimeter): 29.68 in. Hg (1005 hPa)
ob: EPSC 101730Z 24009KT 210V270 9999 -SHRA FEW011 SCT015CB BKN021 04/02 Q1005
cycle: 17

Station Type Date Time Source
EPSC TAF 2018/12/10 12:48 UTC NOAA

TAF TAF EPSC 101130Z 1012/1112 27012KT 9999 BKN025 PROB40
TEMPO 1012/1018 30016G26KT -SHRA BKN012CB
TEMPO 1021/1110 3000 SHSNRA BKN005 BKN010CB
BECMG 1100/1103 33010KT
TEMPO 1110/1112 BKN015CB


Example: see airport list